Time;durP1;ratioP1;P1;durP2;ratioP2;P2;SDS_P1;SDS_P2;PMS_P1;PMS_P2;Temp;Humidity;BMP_temperature;BMP_pressure;BME280_temperature;BME280_humidity;BME280_pressure;Samples;Min_cycle;Max_cycle;Signal;HPM_P1;HPM_P2
2023/01/04 00:00:35;;;;;;;15.85;10.88;;;5.80;99.90;;;;;;5053255;28;20084;-75
2023/01/04 00:03:01;;;;;;;15.98;10.63;;;5.90;99.90;;;;;;5053197;28;20028;-75
2023/01/04 00:05:27;;;;;;;13.23;9.40;;;5.90;99.90;;;;;;5036173;28;20026;-75
2023/01/04 00:07:52;;;;;;;13.73;9.45;;;5.90;99.90;;;;;;5042420;28;20451;-75
2023/01/04 00:10:18;;;;;;;11.70;9.40;;;5.90;99.90;;;;;;5049283;28;20033;-75
2023/01/04 00:12:44;;;;;;;13.63;9.43;;;6.00;99.90;;;;;;5033011;28;20037;-75
2023/01/04 00:15:10;;;;;;;12.48;9.30;;;6.00;99.90;;;;;;5050183;28;20025;-75
2023/01/04 00:17:35;;;;;;;11.95;9.00;;;6.10;99.90;;;;;;5048043;28;20072;-75
2023/01/04 00:20:01;;;;;;;12.73;8.68;;;6.10;99.90;;;;;;5050399;28;20513;-75
2023/01/04 00:22:27;;;;;;;13.10;9.40;;;6.10;99.90;;;;;;5048119;28;20037;-75
2023/01/04 00:24:52;;;;;;;13.48;9.32;;;6.20;99.90;;;;;;5050331;28;20060;-75
2023/01/04 00:27:18;;;;;;;13.88;8.88;;;6.10;99.90;;;;;;5052291;28;20510;-75
2023/01/04 00:29:44;;;;;;;11.70;9.13;;;6.10;99.90;;;;;;5052113;28;20554;-75
2023/01/04 00:32:09;;;;;;;11.23;8.15;;;6.10;99.90;;;;;;5052764;28;20577;-75
2023/01/04 00:34:35;;;;;;;11.45;8.50;;;6.10;99.90;;;;;;5047945;28;20033;-75
2023/01/04 00:37:00;;;;;;;12.25;8.48;;;6.10;99.90;;;;;;5042301;28;20021;-75
2023/01/04 00:39:28;;;;;;;12.23;8.88;;;6.00;99.90;;;;;;5052359;28;20482;-75
2023/01/04 00:42:03;;;;;;;12.95;9.13;;;6.10;99.90;;;;;;5052056;28;20039;-75
2023/01/04 00:44:33;;;;;;;12.65;8.32;;;6.10;99.90;;;;;;5038608;28;20104;-75
2023/01/04 00:47:00;;;;;;;12.20;8.27;;;6.00;99.90;;;;;;5052870;28;20029;-75
2023/01/04 00:49:27;;;;;;;11.57;8.32;;;6.10;99.90;;;;;;5052060;28;20022;-75
2023/01/04 00:51:53;;;;;;;11.95;7.88;;;6.10;99.90;;;;;;5046424;28;20030;-75
2023/01/04 00:54:20;;;;;;;11.23;8.23;;;5.90;99.90;;;;;;5051302;28;20025;-75
2023/01/04 00:56:46;;;;;;;13.82;8.63;;;6.00;99.90;;;;;;5048302;28;20033;-75
2023/01/04 00:59:13;;;;;;;10.70;8.30;;;6.00;99.90;;;;;;5051778;28;20051;-75
2023/01/04 01:01:40;;;;;;;10.40;7.68;;;6.10;99.90;;;;;;5052334;28;20025;-75
2023/01/04 01:04:06;;;;;;;11.48;7.50;;;6.10;99.90;;;;;;5052249;28;20097;-75
2023/01/04 01:06:33;;;;;;;10.52;7.22;;;6.10;99.90;;;;;;5052051;28;20116;-75
2023/01/04 01:08:59;;;;;;;11.32;7.22;;;6.10;99.90;;;;;;5051854;28;20024;-75
2023/01/04 01:11:26;;;;;;;9.95;7.22;;;6.10;99.90;;;;;;5051888;28;20029;-75
2023/01/04 01:13:51;;;;;;;10.85;7.97;;;6.00;99.90;;;;;;5045496;28;20060;-76
2023/01/04 01:16:20;;;;;;;8.93;6.45;;;6.00;99.90;;;;;;5043277;28;20060;-75
2023/01/04 01:18:46;;;;;;;10.02;6.53;;;6.10;99.90;;;;;;5045560;28;20426;-75
2023/01/04 01:21:18;;;;;;;9.00;6.30;;;6.20;99.90;;;;;;5043595;28;20039;-75
2023/01/04 01:23:45;;;;;;;9.65;6.70;;;6.20;99.90;;;;;;5039484;28;20025;-75
2023/01/04 01:26:13;;;;;;;9.40;6.13;;;6.20;99.90;;;;;;5051781;28;20028;-75
2023/01/04 01:28:39;;;;;;;10.32;6.72;;;6.30;99.90;;;;;;5051452;28;20514;-75
2023/01/04 01:31:16;;;;;;;8.57;5.75;;;6.30;99.90;;;;;;5050351;28;20029;-75
2023/01/04 01:33:43;;;;;;;6.43;5.25;;;6.30;99.90;;;;;;5051535;28;20056;-75
2023/01/04 01:36:11;;;;;;;7.97;5.50;;;6.30;99.90;;;;;;5034675;28;20025;-75
2023/01/04 01:38:37;;;;;;;7.13;5.18;;;6.20;99.90;;;;;;5042913;28;20040;-76
2023/01/04 01:41:04;;;;;;;8.38;5.60;;;6.30;99.90;;;;;;5051266;28;20036;-75
2023/01/04 01:43:52;;;;;;;7.20;5.50;;;6.40;99.90;;;;;;5051025;28;20039;-75
2023/01/04 01:46:30;;;;;;;7.10;5.38;;;6.40;99.90;;;;;;5046031;28;20139;-75
2023/01/04 01:49:02;;;;;;;7.05;4.97;;;6.40;99.90;;;;;;5044453;28;20506;-75
2023/01/04 01:51:29;;;;;;;7.15;5.30;;;6.30;99.90;;;;;;5051117;28;20048;-76
2023/01/04 01:54:01;;;;;;;8.32;5.45;;;6.20;99.90;;;;;;5037719;28;20036;-75
2023/01/04 01:56:29;;;;;;;8.75;6.38;;;6.30;99.90;;;;;;5050855;28;20029;-75
2023/01/04 01:58:57;;;;;;;8.02;5.50;;;6.30;99.90;;;;;;5049735;28;20025;-75
2023/01/04 02:01:22;;;;;;;9.88;6.30;;;6.30;99.90;;;;;;5050914;28;20025;-75
2023/01/04 02:03:48;;;;;;;12.00;6.32;;;6.20;99.90;;;;;;5036989;28;20094;-75
2023/01/04 02:06:21;;;;;;;8.48;6.45;;;6.20;99.90;;;;;;5050875;28;20040;-76
2023/01/04 02:08:48;;;;;;;9.98;6.45;;;6.10;99.90;;;;;;5051061;28;20059;-75
2023/01/04 02:11:13;;;;;;;8.45;5.85;;;6.00;99.90;;;;;;5039981;28;20403;-75
2023/01/04 02:17:05;;;;;;;8.40;6.20;;;6.00;99.90;;;;;;5036296;28;20083;-75
2023/01/04 02:19:52;;;;;;;8.95;6.07;;;6.00;99.90;;;;;;5040939;28;20025;-75
2023/01/04 02:22:55;;;;;;;10.00;6.20;;;6.10;99.90;;;;;;5047939;28;20024;-75
2023/01/04 02:25:42;;;;;;;8.38;5.85;;;6.10;99.90;;;;;;5047926;28;20025;-75
2023/01/04 02:28:41;;;;;;;8.10;5.82;;;6.10;99.90;;;;;;5057053;28;20056;-75
2023/01/04 02:31:21;;;;;;;6.70;5.20;;;5.90;99.90;;;;;;5043378;28;20045;-75
2023/01/04 02:33:53;;;;;;;7.00;5.50;;;5.90;99.90;;;;;;5047952;28;20112;-75
2023/01/04 02:36:44;;;;;;;6.53;5.18;;;5.90;99.90;;;;;;5047784;28;20044;-75
2023/01/04 02:39:22;;;;;;;6.55;4.70;;;5.90;99.90;;;;;;5047943;28;20028;-75
2023/01/04 02:42:17;;;;;;;5.85;4.40;;;6.00;99.90;;;;;;5047608;28;20114;-75
2023/01/04 02:44:52;;;;;;;5.93;4.78;;;5.90;99.90;;;;;;5043638;28;20120;-75
2023/01/04 02:50:30;;;;;;;5.00;4.40;;;5.70;99.90;;;;;;5048189;28;20169;-75
2023/01/04 02:53:08;;;;;;;4.15;3.75;;;5.80;99.90;;;;;;5047775;28;20519;-75
2023/01/04 02:55:57;;;;;;;4.03;3.63;;;5.80;99.90;;;;;;5046203;28;20037;-75
2023/01/04 02:58:31;;;;;;;5.05;4.13;;;5.80;99.90;;;;;;5044935;28;20026;-75
2023/01/04 03:07:16;;;;;;;4.68;3.50;;;5.60;99.90;;;;;;5050445;28;20082;-75
2023/01/04 03:09:47;;;;;;;4.97;3.92;;;5.60;99.90;;;;;;5050478;28;20075;-75
2023/01/04 03:12:31;;;;;;;4.50;3.65;;;5.70;99.90;;;;;;5049237;28;20502;-75
2023/01/04 03:15:17;;;;;;;4.13;3.70;;;5.70;99.90;;;;;;5052593;28;20025;-75
2023/01/04 03:17:51;;;;;;;5.00;3.47;;;5.50;99.90;;;;;;5042857;28;20025;-75
2023/01/04 03:20:19;;;;;;;5.57;3.30;;;5.50;99.90;;;;;;5051466;28;20032;-75
2023/01/04 03:37:13;;;;;;;3.55;3.25;;;5.40;99.90;;;;;;5033600;28;20036;-75
2023/01/04 03:48:30;;;;;;;3.88;3.40;;;5.20;99.90;;;;;;5044212;28;20063;-76
2023/01/04 03:50:59;;;;;;;4.55;3.45;;;4.90;99.90;;;;;;5053455;28;20028;-76
2023/01/04 03:53:26;;;;;;;4.35;3.90;;;5.00;99.90;;;;;;5053365;28;20186;-76
2023/01/04 03:55:53;;;;;;;3.83;3.50;;;4.90;99.90;;;;;;5053070;28;20100;-76
2023/01/04 03:58:19;;;;;;;4.15;3.72;;;4.80;99.90;;;;;;5053212;28;20025;-76
2023/01/04 04:00:46;;;;;;;4.07;3.67;;;4.90;99.90;;;;;;5048197;28;20068;-76
2023/01/04 04:03:12;;;;;;;4.63;3.90;;;4.60;99.90;;;;;;5033396;28;20032;-76
2023/01/04 04:08:28;;;;;;;4.93;4.20;;;4.70;99.90;;;;;;5052687;28;20040;-76
2023/01/04 04:10:56;;;;;;;4.38;3.63;;;4.60;99.90;;;;;;5053316;28;20663;-76
2023/01/04 04:13:23;;;;;;;4.85;3.80;;;4.50;99.90;;;;;;5050009;28;20515;-76
2023/01/04 04:15:52;;;;;;;4.20;3.75;;;4.70;99.90;;;;;;5051858;28;20025;-76
2023/01/04 04:18:17;;;;;;;4.30;3.80;;;4.50;99.90;;;;;;5053182;28;20025;-76
2023/01/04 04:20:43;;;;;;;4.95;3.85;;;4.50;99.90;;;;;;5051630;28;20021;-76
2023/01/04 04:23:09;;;;;;;4.40;3.80;;;4.60;99.90;;;;;;5050801;28;20087;-76
2023/01/04 04:25:34;;;;;;;5.05;4.30;;;4.40;99.90;;;;;;5041043;28;20502;-76
2023/01/04 04:28:00;;;;;;;5.22;4.45;;;4.60;99.90;;;;;;5052776;28;20033;-76
2023/01/04 04:30:26;;;;;;;4.80;3.85;;;4.60;99.90;;;;;;5052926;28;20035;-76
2023/01/04 04:32:51;;;;;;;4.38;3.97;;;4.50;99.90;;;;;;5052728;28;20047;-76
2023/01/04 04:35:17;;;;;;;4.35;3.95;;;4.30;99.90;;;;;;5052672;28;20533;-76
2023/01/04 04:37:43;;;;;;;5.20;4.30;;;4.30;99.90;;;;;;5049860;28;20506;-76
2023/01/04 04:41:37;;;;;;;5.57;4.82;;;4.30;99.90;;;;;;5052311;28;20403;-76
2023/01/04 04:42:54;;;;;;;5.50;4.20;;;4.20;99.90;;;;;;5052172;28;20025;-76
2023/01/04 04:45:20;;;;;;;5.82;4.50;;;4.20;99.90;;;;;;5053007;28;20048;-76
2023/01/04 04:47:46;;;;;;;5.10;4.57;;;4.20;99.90;;;;;;5052349;28;20016;-76
2023/01/04 04:50:11;;;;;;;4.88;4.38;;;4.00;99.90;;;;;;5052270;28;20506;-76
2023/01/04 04:52:40;;;;;;;5.03;4.43;;;4.00;99.90;;;;;;5051982;28;20021;-76
2023/01/04 04:55:06;;;;;;;5.93;5.20;;;4.10;99.90;;;;;;5051113;28;20070;-76
2023/01/04 04:57:32;;;;;;;7.50;5.28;;;3.90;99.90;;;;;;5040812;28;20094;-75
2023/01/04 04:59:57;;;;;;;6.00;4.60;;;3.90;99.90;;;;;;5052257;28;20494;-75
2023/01/04 05:02:23;;;;;;;5.10;4.60;;;4.00;99.90;;;;;;5033478;28;20487;-76
2023/01/04 05:04:48;;;;;;;6.72;5.38;;;4.10;99.90;;;;;;5032113;28;20483;-76
2023/01/04 05:07:14;;;;;;;6.07;4.70;;;4.10;99.90;;;;;;5050294;28;20500;-76
2023/01/04 05:09:40;;;;;;;5.82;4.97;;;4.20;99.90;;;;;;5051820;28;20566;-76
2023/01/04 05:14:50;;;;;;;5.25;4.72;;;4.20;99.90;;;;;;5051686;28;20139;-76
2023/01/04 05:17:16;;;;;;;5.78;4.85;;;4.20;99.90;;;;;;5051958;28;20085;-76
2023/01/04 05:19:41;;;;;;;5.60;4.90;;;4.30;99.90;;;;;;5051831;28;20405;-75
2023/01/04 05:22:07;;;;;;;5.43;4.68;;;4.30;99.90;;;;;;5051715;28;20096;-75
2023/01/04 05:24:33;;;;;;;6.43;4.57;;;4.40;99.90;;;;;;5051713;28;20475;-75
2023/01/04 05:26:58;;;;;;;6.07;4.50;;;4.40;99.90;;;;;;5051742;28;20090;-75
2023/01/04 05:32:08;;;;;;;8.50;5.57;;;4.40;99.90;;;;;;5040701;28;20090;-76
2023/01/04 05:34:34;;;;;;;5.68;4.72;;;4.00;99.90;;;;;;5051010;28;20028;-76
2023/01/04 05:37:00;;;;;;;5.35;4.22;;;4.20;99.90;;;;;;5050798;28;20028;-76
2023/01/04 05:39:25;;;;;;;4.82;4.07;;;4.30;99.90;;;;;;5051032;28;20475;-76
2023/01/04 05:42:36;;;;;;;4.40;3.97;;;4.20;99.90;;;;;;5051454;28;20051;-76
2023/01/04 05:44:37;;;;;;;4.40;3.90;;;4.30;99.90;;;;;;5032296;28;20041;-76
2023/01/04 05:47:02;;;;;;;4.95;4.30;;;4.30;99.90;;;;;;5050943;28;20039;-76
2023/01/04 05:49:28;;;;;;;4.88;4.15;;;4.40;99.90;;;;;;5050503;28;20033;-76
2023/01/04 05:51:54;;;;;;;4.60;3.80;;;4.40;99.90;;;;;;5039181;28;20053;-76
2023/01/04 05:54:19;;;;;;;5.50;3.95;;;4.40;99.90;;;;;;5049687;28;20498;-76
2023/01/04 05:56:45;;;;;;;4.25;3.85;;;4.30;99.90;;;;;;5066159;28;20550;-76
2023/01/04 05:59:11;;;;;;;5.60;4.78;;;4.30;99.90;;;;;;5051562;28;20052;-76
2023/01/04 06:01:36;;;;;;;4.10;3.70;;;4.30;99.90;;;;;;5039514;28;20568;-76
2023/01/04 06:04:02;;;;;;;4.80;4.15;;;4.30;99.90;;;;;;5036738;28;20551;-75
2023/01/04 06:06:28;;;;;;;4.45;4.05;;;4.20;99.90;;;;;;5042609;28;20031;-76
2023/01/04 06:08:53;;;;;;;4.53;4.10;;;4.20;99.90;;;;;;5050534;28;20511;-76
2023/01/04 06:11:19;;;;;;;3.65;3.35;;;4.00;99.90;;;;;;5050842;28;20491;-76
2023/01/04 06:13:45;;;;;;;4.53;4.10;;;3.90;99.90;;;;;;5061355;28;20510;-76
2023/01/04 06:16:10;;;;;;;4.30;3.72;;;3.90;99.90;;;;;;5030990;28;20507;-76
2023/01/04 06:18:36;;;;;;;4.90;4.38;;;3.90;99.90;;;;;;5035164;28;20786;-76
2023/01/04 06:21:02;;;;;;;4.80;4.07;;;3.90;99.90;;;;;;5050730;28;20020;-76
2023/01/04 06:23:27;;;;;;;4.70;4.30;;;4.00;99.90;;;;;;5050739;28;20100;-76
2023/01/04 06:25:53;;;;;;;4.28;3.70;;;4.00;99.90;;;;;;5045674;28;20112;-76
2023/01/04 06:28:19;;;;;;;4.80;3.67;;;4.00;99.90;;;;;;5048287;28;20053;-76
2023/01/04 06:30:44;;;;;;;4.25;3.85;;;4.00;99.90;;;;;;5050695;28;20021;-76
2023/01/04 06:33:10;;;;;;;4.53;4.13;;;4.10;99.90;;;;;;5050443;28;20494;-76
2023/01/04 06:35:36;;;;;;;4.07;3.67;;;4.10;99.90;;;;;;5043721;28;20040;-75
2023/01/04 06:38:01;;;;;;;3.92;3.47;;;4.00;99.90;;;;;;5047921;28;20504;-76
2023/01/04 06:40:27;;;;;;;5.43;3.95;;;4.00;99.90;;;;;;5050679;28;20017;-76
2023/01/04 06:42:53;;;;;;;4.25;3.60;;;4.10;99.90;;;;;;5050708;28;20466;-76
2023/01/04 06:45:18;;;;;;;4.03;3.58;;;4.00;99.90;;;;;;5051656;28;20451;-76
2023/01/04 06:47:46;;;;;;;5.22;3.88;;;4.00;99.90;;;;;;5050697;28;20056;-76
2023/01/04 06:50:12;;;;;;;4.50;3.88;;;4.00;99.90;;;;;;5038715;28;20117;-76
2023/01/04 06:52:38;;;;;;;4.60;4.20;;;4.00;99.90;;;;;;5048849;28;20044;-75
2023/01/04 06:55:06;;;;;;;4.63;3.60;;;4.00;99.90;;;;;;5050503;28;20028;-76
2023/01/04 06:57:32;;;;;;;4.90;3.85;;;4.10;99.90;;;;;;5050927;28;20566;-76
2023/01/04 06:59:58;;;;;;;4.75;3.85;;;4.10;99.90;;;;;;5050213;28;20061;-76
2023/01/04 07:02:24;;;;;;;4.20;3.55;;;4.00;99.90;;;;;;5050225;28;20021;-76
2023/01/04 07:04:49;;;;;;;4.35;3.58;;;4.00;99.90;;;;;;5050369;28;20486;-76
2023/01/04 07:07:15;;;;;;;4.25;3.65;;;4.00;99.90;;;;;;5050524;28;20515;-76
2023/01/04 07:09:41;;;;;;;5.22;3.83;;;3.90;99.90;;;;;;5050658;28;20032;-76
2023/01/04 07:12:06;;;;;;;4.38;3.88;;;3.90;99.90;;;;;;5050260;28;20061;-76
2023/01/04 07:14:32;;;;;;;4.22;3.40;;;3.90;99.90;;;;;;5049259;28;20025;-76
2023/01/04 07:16:58;;;;;;;4.32;3.40;;;4.00;99.90;;;;;;5050344;28;20104;-76
2023/01/04 07:19:24;;;;;;;4.57;3.53;;;4.00;99.90;;;;;;5045749;28;20525;-76
2023/01/04 07:21:49;;;;;;;5.00;3.97;;;4.00;99.90;;;;;;5047696;28;20021;-76
2023/01/04 07:24:15;;;;;;;4.65;3.83;;;4.00;99.90;;;;;;5050497;28;20486;-76
2023/01/04 07:26:40;;;;;;;3.72;3.28;;;4.00;99.90;;;;;;5050454;28;20025;-76
2023/01/04 07:29:15;;;;;;;6.25;3.63;;;4.00;99.90;;;;;;5050316;28;20053;-76
2023/01/04 07:31:50;;;;;;;5.10;3.75;;;4.10;99.90;;;;;;5044566;28;20025;-76
2023/01/04 07:34:17;;;;;;;4.53;3.92;;;3.90;99.90;;;;;;5044020;28;20116;-76
2023/01/04 07:36:43;;;;;;;4.97;3.97;;;3.90;99.90;;;;;;5047737;28;20540;-76
2023/01/04 07:39:10;;;;;;;4.25;3.53;;;4.10;99.90;;;;;;5049384;28;20287;-76
2023/01/04 07:41:40;;;;;;;4.10;3.55;;;4.10;99.90;;;;;;5049837;28;20035;-76
2023/01/04 07:44:07;;;;;;;4.85;3.53;;;4.10;99.90;;;;;;5048572;28;20498;-76
2023/01/04 07:46:33;;;;;;;4.00;3.35;;;4.10;99.90;;;;;;5050020;28;20070;-76
2023/01/04 07:48:59;;;;;;;4.80;3.88;;;4.10;99.90;;;;;;5036133;28;20107;-76
2023/01/04 07:51:25;;;;;;;4.43;3.47;;;4.10;99.90;;;;;;5049350;28;20021;-76
2023/01/04 07:53:51;;;;;;;6.38;3.90;;;4.00;99.90;;;;;;5049107;28;20036;-76
2023/01/04 07:56:17;;;;;;;5.65;4.43;;;3.90;99.90;;;;;;5049512;28;20021;-76
2023/01/04 07:58:43;;;;;;;3.85;3.35;;;4.00;99.90;;;;;;5049168;28;20025;-76
2023/01/04 08:01:12;;;;;;;4.65;3.72;;;4.10;99.90;;;;;;5050736;28;20009;-75
2023/01/04 08:03:38;;;;;;;5.60;4.03;;;4.10;99.90;;;;;;5048489;28;20025;-75
2023/01/04 08:06:05;;;;;;;4.68;4.15;;;4.20;99.90;;;;;;5050922;28;20028;-76
2023/01/04 08:08:31;;;;;;;4.18;3.50;;;4.30;99.90;;;;;;5052120;28;20025;-76
2023/01/04 08:11:05;;;;;;;5.63;4.22;;;4.30;99.90;;;;;;5047613;28;20550;-75
2023/01/04 08:13:31;;;;;;;4.90;3.85;;;4.30;99.90;;;;;;5045142;28;20747;-76
2023/01/04 08:15:57;;;;;;;5.03;3.78;;;4.20;99.90;;;;;;5042313;28;20021;-75
2023/01/04 08:18:23;;;;;;;5.22;3.72;;;4.20;99.90;;;;;;5040400;28;20048;-75
2023/01/04 08:20:49;;;;;;;5.65;4.32;;;4.30;99.90;;;;;;5040379;28;20021;-75
2023/01/04 08:23:14;;;;;;;5.70;4.18;;;4.30;99.90;;;;;;5047347;28;20289;-75
2023/01/04 08:25:40;;;;;;;6.43;4.40;;;4.20;99.90;;;;;;5051405;28;20480;-75
2023/01/04 08:28:06;;;;;;;5.40;4.22;;;4.30;99.90;;;;;;5047312;28;20033;-75
2023/01/04 08:30:32;;;;;;;5.10;4.55;;;4.20;99.90;;;;;;5051467;28;20025;-75
2023/01/04 08:32:57;;;;;;;5.78;4.72;;;4.40;99.90;;;;;;5038141;28;20414;-76
2023/01/04 08:35:23;;;;;;;5.80;4.15;;;4.30;99.90;;;;;;5046975;28;20032;-76
2023/01/04 08:37:49;;;;;;;5.53;4.50;;;4.30;99.90;;;;;;5041048;28;20029;-76
2023/01/04 08:40:15;;;;;;;4.90;4.22;;;4.60;99.90;;;;;;5051520;28;20036;-76
2023/01/04 08:42:40;;;;;;;5.75;4.80;;;4.70;99.90;;;;;;5050900;28;20546;-76
2023/01/04 08:45:08;;;;;;;6.35;4.43;;;4.70;99.90;;;;;;5046642;28;20030;-76
2023/01/04 08:47:33;;;;;;;6.40;4.28;;;4.90;99.90;;;;;;5050496;28;20086;-76
2023/01/04 08:49:59;;;;;;;5.97;4.60;;;4.70;99.90;;;;;;5041846;28;20037;-76
2023/01/04 08:52:25;;;;;;;5.30;4.45;;;4.80;99.90;;;;;;5048819;28;20530;-76
2023/01/04 08:54:51;;;;;;;5.28;4.32;;;4.90;99.90;;;;;;5045962;28;20116;-76
2023/01/04 08:57:17;;;;;;;5.43;4.70;;;4.70;99.90;;;;;;5050712;28;20498;-76
2023/01/04 08:59:43;;;;;;;6.57;4.78;;;4.90;99.90;;;;;;5051134;28;20025;-76
2023/01/04 09:02:24;;;;;;;5.53;4.85;;;4.90;99.90;;;;;;5051127;28;20025;-76
2023/01/04 09:04:50;;;;;;;5.82;4.30;;;4.80;99.90;;;;;;5051161;28;20112;-76
2023/01/04 09:07:16;;;;;;;5.00;4.22;;;4.90;99.90;;;;;;5050688;28;20538;-76
2023/01/04 09:09:42;;;;;;;5.53;4.63;;;5.00;99.90;;;;;;5050822;28;20098;-76
2023/01/04 09:12:08;;;;;;;6.70;4.80;;;5.10;99.90;;;;;;5049278;28;20573;-76
2023/01/04 09:14:34;;;;;;;6.50;5.15;;;5.10;99.90;;;;;;5050971;28;20076;-75
2023/01/04 09:16:59;;;;;;;8.35;4.78;;;5.00;99.90;;;;;;5051035;28;20500;-76
2023/01/04 09:19:25;;;;;;;5.15;4.57;;;5.20;99.90;;;;;;5049081;28;20028;-76
2023/01/04 09:21:51;;;;;;;7.47;5.28;;;5.10;99.90;;;;;;5051214;28;20025;-76
2023/01/04 09:24:16;;;;;;;7.05;5.30;;;5.10;99.90;;;;;;5049903;28;20498;-76
2023/01/04 09:26:42;;;;;;;6.72;5.57;;;5.20;99.90;;;;;;5050411;28;20029;-76
2023/01/04 09:29:10;;;;;;;8.40;5.75;;;5.40;99.90;;;;;;5050599;28;20041;-76
2023/01/04 09:31:36;;;;;;;8.00;5.70;;;5.70;99.90;;;;;;5050441;28;20033;-76
2023/01/04 09:34:01;;;;;;;6.25;5.22;;;5.80;99.90;;;;;;5049117;28;20036;-76
2023/01/04 09:36:28;;;;;;;8.73;6.00;;;5.90;99.90;;;;;;5051365;28;20033;-76
2023/01/04 09:38:54;;;;;;;6.93;5.10;;;6.10;99.90;;;;;;5051073;28;20078;-76
2023/01/04 09:41:27;;;;;;;9.85;6.68;;;6.20;99.90;;;;;;5050572;28;20048;-76
2023/01/04 09:43:55;;;;;;;7.90;6.45;;;6.30;99.90;;;;;;5047437;28;20033;-76
2023/01/04 09:46:46;;;;;;;9.23;6.30;;;6.20;99.90;;;;;;5051075;28;20106;-76
2023/01/04 09:49:15;;;;;;;12.10;6.85;;;5.80;99.90;;;;;;5051384;28;20025;-76
2023/01/04 09:51:48;;;;;;;7.18;5.95;;;5.80;99.90;;;;;;5049267;28;20041;-76
2023/01/04 09:54:19;;;;;;;9.02;7.03;;;6.00;99.90;;;;;;5051127;28;20118;-76
2023/01/04 09:56:52;;;;;;;8.85;7.07;;;5.90;99.90;;;;;;5050986;28;20032;-76
2023/01/04 09:59:24;;;;;;;10.52;7.38;;;5.90;99.90;;;;;;5049590;28;20029;-76
2023/01/04 10:01:59;;;;;;;9.75;7.55;;;5.80;99.90;;;;;;5049670;28;20068;-76
2023/01/04 10:04:29;;;;;;;9.80;7.72;;;5.50;99.90;;;;;;5037504;28;20017;-76
2023/01/04 10:06:56;;;;;;;8.83;7.17;;;5.50;99.90;;;;;;5041468;28;20155;-76
2023/01/04 10:09:21;;;;;;;8.50;6.20;;;5.80;99.90;;;;;;5050332;28;20021;-76
2023/01/04 10:12:09;;;;;;;9.35;7.07;;;5.90;99.90;;;;;;5044970;28;20187;-76
2023/01/04 10:14:54;;;;;;;10.32;6.68;;;5.90;99.90;;;;;;5047236;28;20071;-76
2023/01/04 10:17:34;;;;;;;8.20;6.47;;;6.10;99.90;;;;;;5036826;28;20013;-76
2023/01/04 10:20:38;;;;;;;7.67;5.67;;;6.30;99.90;;;;;;5043408;28;20029;-76
2023/01/04 10:23:20;;;;;;;8.73;6.55;;;6.30;99.90;;;;;;5049573;28;20275;-76
2023/01/04 10:25:56;;;;;;;7.68;6.20;;;6.20;99.90;;;;;;5048000;28;20036;-77
2023/01/04 10:28:37;;;;;;;8.80;6.45;;;6.20;99.90;;;;;;5050018;28;20052;-76
2023/01/04 10:31:18;;;;;;;7.03;6.22;;;6.40;99.90;;;;;;5049989;28;20052;-76
2023/01/04 10:34:09;;;;;;;8.77;6.25;;;6.40;99.90;;;;;;5048329;28;20025;-76
2023/01/04 10:36:35;;;;;;;9.27;6.75;;;6.60;99.90;;;;;;5049850;28;20096;-76
2023/01/04 10:39:03;;;;;;;8.43;6.82;;;6.60;99.90;;;;;;5049788;28;20067;-76
2023/01/04 10:41:39;;;;;;;9.40;7.20;;;6.60;99.90;;;;;;5048933;28;20032;-76
2023/01/04 10:44:11;;;;;;;9.43;6.80;;;6.40;99.90;;;;;;5038766;28;20013;-76
2023/01/04 10:47:10;;;;;;;9.18;6.80;;;6.40;99.90;;;;;;5049676;28;20035;-76
2023/01/04 10:49:57;;;;;;;9.13;7.13;;;6.70;99.90;;;;;;5036309;28;20106;-76
2023/01/04 10:52:43;;;;;;;9.65;7.15;;;6.70;99.90;;;;;;5049266;28;20525;-76
2023/01/04 10:55:20;;;;;;;9.48;6.93;;;6.80;99.90;;;;;;5049732;28;20056;-76
2023/01/04 10:57:51;;;;;;;10.25;8.27;;;6.70;99.90;;;;;;5039798;28;20074;-76
2023/01/04 11:00:37;;;;;;;;;;;6.70;99.90;;;;;;5049934;28;20025;-76
2023/01/04 11:03:11;;;;;;;9.75;7.50;;;6.80;99.90;;;;;;5049399;28;20003;-76
2023/01/04 11:05:45;;;;;;;8.40;7.00;;;7.00;99.90;;;;;;5049799;28;20036;-76
2023/01/04 11:08:20;;;;;;;10.98;7.93;;;7.10;99.90;;;;;;5035276;28;20029;-76
2023/01/04 11:11:14;;;;;;;10.95;7.95;;;6.80;99.90;;;;;;5042625;28;20104;-76
2023/01/04 11:13:40;;;;;;;9.63;7.85;;;7.20;99.90;;;;;;5033070;28;20037;-76
2023/01/04 11:16:07;;;;;;;13.02;9.10;;;7.30;99.90;;;;;;5042354;28;20028;-76
2023/01/04 11:18:36;;;;;;;11.32;9.15;;;7.10;99.90;;;;;;5046796;28;20017;-76
2023/01/04 11:21:07;;;;;;;12.75;9.43;;;6.90;99.90;;;;;;5047756;28;20402;-76
2023/01/04 11:23:33;;;;;;;;;;;7.20;99.90;;;;;;5048159;28;20025;-75
2023/01/04 11:26:14;;;;;;;14.00;9.80;;;7.40;99.90;;;;;;5049560;28;20446;-76
2023/01/04 11:28:46;;;;;;;;;;;7.00;99.90;;;;;;5043069;28;20056;-76
2023/01/04 11:31:30;;;;;;;;;;;7.00;99.90;;;;;;5036241;28;19905;-77
2023/01/04 11:34:01;;;;;;;18.95;12.57;;;7.00;99.90;;;;;;5049601;28;19912;-76
2023/01/04 11:36:30;;;;;;;14.85;12.07;;;6.70;99.90;;;;;;5052458;28;20087;-76
2023/01/04 11:38:55;;;;;;;14.52;10.70;;;6.90;99.90;;;;;;5053217;28;20025;-76
2023/01/04 11:41:21;;;;;;;16.88;12.10;;;7.30;99.90;;;;;;5050062;28;20504;-76
2023/01/04 11:44:03;;;;;;;17.67;11.85;;;7.30;99.90;;;;;;5048123;28;20082;-76
2023/01/04 11:46:34;;;;;;;16.10;11.07;;;7.40;99.90;;;;;;5040383;28;20083;-76
2023/01/04 11:49:00;;;;;;;17.38;11.50;;;7.40;99.90;;;;;;5051992;28;20039;-76
2023/01/04 11:51:25;;;;;;;17.17;12.27;;;7.30;99.90;;;;;;5053117;28;20099;-76
2023/01/04 11:54:05;;;;;;;16.17;12.80;;;7.30;99.90;;;;;;5039771;28;20030;-76
2023/01/04 11:56:33;;;;;;;18.33;12.88;;;7.20;99.90;;;;;;5053024;28;20060;-76
2023/01/04 11:59:02;;;;;;;21.52;14.90;;;7.30;99.90;;;;;;5052821;28;20021;-76
2023/01/04 12:01:28;;;;;;;19.52;13.98;;;7.30;99.90;;;;;;5052577;28;20039;-76
2023/01/04 12:03:54;;;;;;;20.00;14.88;;;7.20;99.90;;;;;;5052798;28;20041;-76
2023/01/04 12:06:39;;;;;;;20.83;15.38;;;7.20;99.90;;;;;;5052697;28;20525;-76
2023/01/04 12:09:11;;;;;;;20.65;14.85;;;7.30;99.90;;;;;;5039028;28;20029;-76
2023/01/04 12:11:39;;;;;;;;;;;7.30;99.90;;;;;;5052875;28;20145;-76
2023/01/04 12:14:19;;;;;;;21.60;15.88;;;7.30;99.90;;;;;;5051326;28;19950;-76
2023/01/04 12:17:02;;;;;;;24.98;16.13;;;7.40;99.90;;;;;;5048092;28;20029;-76
2023/01/04 12:19:29;;;;;;;19.83;15.60;;;7.50;99.90;;;;;;5045667;28;20110;-76
2023/01/04 12:21:58;;;;;;;22.00;15.85;;;7.60;99.90;;;;;;5052434;28;20040;-76
2023/01/04 12:24:33;;;;;;;18.40;14.55;;;7.60;99.90;;;;;;5052442;28;20064;-76
2023/01/04 12:27:00;;;;;;;17.67;13.63;;;7.70;99.90;;;;;;5040007;28;20033;-76
2023/01/04 12:29:59;;;;;;;18.83;14.07;;;7.80;99.90;;;;;;5052096;28;20084;-76
2023/01/04 12:32:24;;;;;;;18.30;13.18;;;7.90;99.90;;;;;;5049383;28;20491;-76
2023/01/04 12:34:50;;;;;;;17.95;13.00;;;7.90;99.90;;;;;;5050351;28;20029;-76
2023/01/04 12:37:44;;;;;;;16.67;12.32;;;7.90;99.90;;;;;;5052037;28;20139;-76
2023/01/04 12:40:44;;;;;;;16.17;12.63;;;7.90;99.90;;;;;;5041464;28;20514;-76
2023/01/04 12:43:15;;;;;;;14.25;11.52;;;8.00;99.90;;;;;;5039439;28;20033;-76
2023/01/04 12:45:41;;;;;;;;;;;8.10;99.90;;;;;;5053315;28;20041;-76
2023/01/04 12:51:25;;;;;;;13.70;10.57;;;8.20;99.90;;;;;;5051894;28;20040;-76
2023/01/04 12:53:56;;;;;;;14.02;10.98;;;8.30;99.90;;;;;;5052109;28;20052;-76
2023/01/04 12:56:22;;;;;;;13.35;10.02;;;8.30;99.90;;;;;;5051568;28;20036;-76
2023/01/04 12:59:13;;;;;;;13.90;10.13;;;8.40;99.90;;;;;;5051128;28;20025;-77
2023/01/04 13:01:38;;;;;;;11.10;9.00;;;8.50;99.90;;;;;;5034620;28;20034;-77
2023/01/04 13:04:38;;;;;;;12.65;10.05;;;8.60;99.90;;;;;;5049779;28;20028;-76
2023/01/04 13:07:13;;;;;;;11.90;9.65;;;8.80;99.90;;;;;;5038143;28;20070;-76
2023/01/04 13:09:45;;;;;;;13.45;9.10;;;8.80;99.90;;;;;;5050194;28;20039;-76
2023/01/04 13:12:37;;;;;;;11.57;9.63;;;8.90;99.90;;;;;;5051117;28;20029;-76
2023/01/04 13:15:09;;;;;;;10.43;8.90;;;9.10;99.90;;;;;;5048792;28;20036;-76
2023/01/04 13:17:38;;;;;;;12.30;9.63;;;8.90;99.90;;;;;;5051014;28;20320;-76
2023/01/04 13:20:24;;;;;;;12.35;8.98;;;8.90;99.90;;;;;;5051042;28;20036;-76
2023/01/04 13:22:53;;;;;;;13.02;9.63;;;8.90;99.90;;;;;;5038140;28;20017;-76
2023/01/04 13:25:20;;;;;;;11.10;8.32;;;9.00;99.90;;;;;;5050066;28;20036;-76
2023/01/04 13:27:59;;;;;;;11.02;8.48;;;9.20;99.90;;;;;;5051496;28;20517;-76
2023/01/04 13:30:32;;;;;;;11.25;8.77;;;9.10;99.90;;;;;;5051156;28;20036;-76
2023/01/04 13:33:05;;;;;;;13.40;9.52;;;9.20;99.90;;;;;;5050687;28;20036;-76
2023/01/04 13:35:31;;;;;;;13.18;9.93;;;9.20;99.90;;;;;;5050956;28;20031;-76
2023/01/04 13:37:59;;;;;;;10.20;8.32;;;9.30;99.90;;;;;;5048811;28;20033;-76
2023/01/04 13:40:34;;;;;;;10.38;7.88;;;9.30;99.90;;;;;;5051371;28;20013;-77
2023/01/04 13:43:15;;;;;;;10.85;8.20;;;9.20;99.90;;;;;;5051415;28;20075;-76
2023/01/04 13:46:10;;;;;;;10.33;7.53;;;9.30;99.90;;;;;;5051732;28;20545;-76
2023/01/04 13:48:39;;;;;;;9.18;7.60;;;9.40;99.90;;;;;;5050660;28;20036;-76
2023/01/04 13:51:17;;;;;;;11.43;8.13;;;9.30;99.90;;;;;;5050965;28;20039;-76
2023/01/04 13:53:52;;;;;;;9.18;7.05;;;9.60;99.90;;;;;;5050431;28;20630;-76
2023/01/04 13:56:21;;;;;;;9.88;8.35;;;9.80;99.90;;;;;;5039118;28;20072;-77
2023/01/04 13:58:47;;;;;;;10.60;7.90;;;9.60;99.90;;;;;;5048400;28;20100;-76